Mondariz, Spain
Current Conditions -  °F | °C
As of 4:30 AM on Sunday 23 Nov 2014 (Local Time) from LEVX Reporting Station
Light Fog Light Fog  
Wind Chill: 54°   Ceiling: 100
Heat Index: 54°   Visibility: 0.12mi
Dew Point: 54°   Wind: 12mph
Humidity: 100%   Direction: 360°N
Pressure: 29.85"   Gusts: NA
Location:  42.23°N, 8.46°W
Report Text: LEVX 230330Z 36010KT 330V040 0200 R20/P2000 R02/P2000 BCFG VV001 12/12 Q1011 TEMPO 0800 BCFG BKN010
Loading
Personal Weather Stations






























Interactive Weather Map New forecast layout! Learn more

10-Day Weather Forecast

Advertisements
Track Severe Weather on mobile